This is the latest recevied weather packets stored in our database for station/object HA8LNU. If no packets are shown the sender has not sent any weather packets the latest 10 day(s).
| Time | Temp. | Humidity | Pressure | Rain* | Wind** | Luminosity | Snow |
|---|---|---|---|---|---|---|---|
| 1777708831 | 19.44° C | 30% | 1024.7 hPa | 0 mm | - | - | - |
| 1777707025 | 20° C | 32% | 1024.8 hPa | 0 mm | - | - | - |
| 1777706423 | 19.44° C | 33% | 1024.9 hPa | 0 mm | - | - | - |
| 1777704617 | 17.22° C | 40% | 1025 hPa | 0 mm | - | - | - |
| 1777702268 | 12.78° C | 50% | 1025.1 hPa | 0 mm | - | - | - |
| 1777692635 | 6.11° C | 79% | 1024.9 hPa | 0 mm | - | - | - |
| 1777692032 | 6.67° C | 79% | 1024.8 hPa | 0 mm | - | - | - |
| 1777690226 | 6.11° C | 78% | 1025.1 hPa | 0 mm | - | - | - |
| 1777686071 | 5.56° C | 76% | 1025 hPa | 0 mm | - | - | - |
| 1777684265 | 6.11° C | 78% | 1025.2 hPa | 0 mm | - | - | - |
| 1777683081 | 5.56° C | 78% | 1025.5 hPa | 0 mm | - | - | - |
| 1777682459 | 5° C | 78% | 1025.5 hPa | 0 mm | - | - | - |
| 1777680652 | 4.44° C | 77% | 1025.5 hPa | 0 mm | - | - | - |
| 1777678846 | 3.89° C | 74% | 1025.6 hPa | 0 mm | - | - | - |
| 1777677040 | 4.44° C | 73% | 1025.8 hPa | 0 mm | - | - | - |
| 1777675234 | 5° C | 70% | 1025.7 hPa | 0 mm | - | - | - |
| 1777672825 | 5.56° C | 67% | 1025.9 hPa | 0 mm | - | - | - |
| 1777669875 | 7.22° C | 62% | 1025.7 hPa | 0 mm | - | - | - |
| 1777665058 | 9.44° C | 47% | 1025.5 hPa | 0 mm | - | - | - |
| 1777663874 | 11.11° C | 42% | 1025.6 hPa | 0 mm | - | - | - |
| 1777662649 | 11.67° C | 40% | 1025.6 hPa | 0 mm | - | - | - |
| 1777656628 | 15° C | 30% | 1024.9 hPa | 0 mm | - | - | - |
| 1777655444 | 15.56° C | 28% | 1024.9 hPa | 0 mm | - | - | - |
| 1777651871 | 17.22° C | 22% | 1024.9 hPa | 0 mm | - | - | - |
| 1777651269 | 17.22° C | 22% | 1025 hPa | 0 mm | - | - | - |
* Rain latest hour (hover to see other rain measurements)
** Current wind speed in m/s (hover to see current wind gust speed)